sensor_id;sensor_type;location;lat;lon;timestamp;P1;durP1;ratioP1;P2;durP2;ratioP2
37891;SDS011;45797;47.466;9.486;2023-11-21T00:07:46;2.05;;;0.43;;
37891;SDS011;45797;47.466;9.486;2023-11-21T00:12:47;1.30;;;0.52;;
37891;SDS011;45797;47.466;9.486;2023-11-21T00:17:48;2.35;;;0.40;;
37891;SDS011;45797;47.466;9.486;2023-11-21T00:22:50;0.47;;;0.35;;
37891;SDS011;45797;47.466;9.486;2023-11-21T00:27:50;3.67;;;0.55;;
37891;SDS011;45797;47.466;9.486;2023-11-21T00:32:51;4.25;;;0.70;;
37891;SDS011;45797;47.466;9.486;2023-11-21T00:37:59;5.03;;;0.60;;
37891;SDS011;45797;47.466;9.486;2023-11-21T00:48:03;2.03;;;0.50;;
37891;SDS011;45797;47.466;9.486;2023-11-21T00:53:11;4.40;;;0.50;;
37891;SDS011;45797;47.466;9.486;2023-11-21T00:58:12;1.30;;;0.50;;
37891;SDS011;45797;47.466;9.486;2023-11-21T01:03:12;3.08;;;0.68;;
37891;SDS011;45797;47.466;9.486;2023-11-21T01:13:16;0.73;;;0.40;;
37891;SDS011;45797;47.466;9.486;2023-11-21T01:18:23;1.48;;;0.50;;
37891;SDS011;45797;47.466;9.486;2023-11-21T01:23:25;2.58;;;0.60;;
37891;SDS011;45797;47.466;9.486;2023-11-21T01:33:37;1.10;;;0.30;;
37891;SDS011;45797;47.466;9.486;2023-11-21T01:38:37;1.38;;;0.60;;
37891;SDS011;45797;47.466;9.486;2023-11-21T01:43:38;1.33;;;0.40;;
37891;SDS011;45797;47.466;9.486;2023-11-21T01:48:38;1.33;;;0.68;;
37891;SDS011;45797;47.466;9.486;2023-11-21T01:53:53;2.83;;;0.40;;
37891;SDS011;45797;47.466;9.486;2023-11-21T01:58:54;0.57;;;0.40;;
37891;SDS011;45797;47.466;9.486;2023-11-21T02:03:54;3.45;;;0.60;;
37891;SDS011;45797;47.466;9.486;2023-11-21T02:08:55;2.22;;;0.60;;
37891;SDS011;45797;47.466;9.486;2023-11-21T02:13:55;0.98;;;0.40;;
37891;SDS011;45797;47.466;9.486;2023-11-21T02:19:10;2.22;;;0.45;;
37891;SDS011;45797;47.466;9.486;2023-11-21T02:24:22;0.90;;;0.50;;
37891;SDS011;45797;47.466;9.486;2023-11-21T02:29:39;0.60;;;0.35;;
37891;SDS011;45797;47.466;9.486;2023-11-21T02:40:09;1.17;;;0.50;;
37891;SDS011;45797;47.466;9.486;2023-11-21T02:45:20;1.25;;;0.63;;
37891;SDS011;45797;47.466;9.486;2023-11-21T02:50:24;1.25;;;0.40;;
37891;SDS011;45797;47.466;9.486;2023-11-21T02:55:35;0.60;;;0.40;;
37891;SDS011;45797;47.466;9.486;2023-11-21T03:00:38;2.88;;;0.57;;
37891;SDS011;45797;47.466;9.486;2023-11-21T03:05:43;3.38;;;0.57;;
37891;SDS011;45797;47.466;9.486;2023-11-21T03:10:45;1.63;;;0.50;;
37891;SDS011;45797;47.466;9.486;2023-11-21T03:15:48;1.48;;;0.75;;
37891;SDS011;45797;47.466;9.486;2023-11-21T03:25:54;0.82;;;0.40;;
37891;SDS011;45797;47.466;9.486;2023-11-21T03:30:55;1.85;;;0.52;;
37891;SDS011;45797;47.466;9.486;2023-11-21T03:35:58;0.90;;;0.60;;
37891;SDS011;45797;47.466;9.486;2023-11-21T03:51:06;0.73;;;0.50;;
37891;SDS011;45797;47.466;9.486;2023-11-21T03:56:08;1.73;;;0.70;;
37891;SDS011;45797;47.466;9.486;2023-11-21T04:01:23;5.93;;;0.50;;
37891;SDS011;45797;47.466;9.486;2023-11-21T04:06:24;1.83;;;0.30;;
37891;SDS011;45797;47.466;9.486;2023-11-21T04:11:36;2.60;;;0.50;;
37891;SDS011;45797;47.466;9.486;2023-11-21T04:16:36;1.30;;;0.40;;
37891;SDS011;45797;47.466;9.486;2023-11-21T04:21:36;1.30;;;0.60;;
37891;SDS011;45797;47.466;9.486;2023-11-21T04:26:45;2.95;;;0.50;;
37891;SDS011;45797;47.466;9.486;2023-11-21T04:31:46;0.70;;;0.50;;
37891;SDS011;45797;47.466;9.486;2023-11-21T04:36:49;1.30;;;0.52;;
37891;SDS011;45797;47.466;9.486;2023-11-21T04:41:51;1.45;;;0.50;;
37891;SDS011;45797;47.466;9.486;2023-11-21T04:52:05;1.42;;;0.50;;
37891;SDS011;45797;47.466;9.486;2023-11-21T04:57:16;1.83;;;0.60;;
37891;SDS011;45797;47.466;9.486;2023-11-21T05:02:18;3.75;;;0.68;;
37891;SDS011;45797;47.466;9.486;2023-11-21T05:12:23;0.80;;;0.45;;
37891;SDS011;45797;47.466;9.486;2023-11-21T05:17:24;2.88;;;0.80;;
37891;SDS011;45797;47.466;9.486;2023-11-21T05:22:25;0.88;;;0.40;;
37891;SDS011;45797;47.466;9.486;2023-11-21T05:27:32;5.40;;;0.60;;
37891;SDS011;45797;47.466;9.486;2023-11-21T05:32:34;1.35;;;0.70;;
37891;SDS011;45797;47.466;9.486;2023-11-21T05:37:40;5.57;;;0.65;;
37891;SDS011;45797;47.466;9.486;2023-11-21T05:42:53;2.28;;;0.70;;
37891;SDS011;45797;47.466;9.486;2023-11-21T05:53:01;1.55;;;0.68;;
37891;SDS011;45797;47.466;9.486;2023-11-21T06:03:13;0.98;;;0.40;;
37891;SDS011;45797;47.466;9.486;2023-11-21T06:08:23;0.65;;;0.35;;
37891;SDS011;45797;47.466;9.486;2023-11-21T06:18:44;1.67;;;0.50;;
37891;SDS011;45797;47.466;9.486;2023-11-21T06:23:45;0.50;;;0.40;;
37891;SDS011;45797;47.466;9.486;2023-11-21T06:29:04;0.50;;;0.32;;
37891;SDS011;45797;47.466;9.486;2023-11-21T06:34:04;0.68;;;0.40;;
37891;SDS011;45797;47.466;9.486;2023-11-21T06:39:05;1.13;;;0.47;;
37891;SDS011;45797;47.466;9.486;2023-11-21T06:44:16;4.72;;;1.42;;
37891;SDS011;45797;47.466;9.486;2023-11-21T06:49:17;2.20;;;1.08;;
37891;SDS011;45797;47.466;9.486;2023-11-21T06:54:19;2.70;;;0.45;;
37891;SDS011;45797;47.466;9.486;2023-11-21T06:59:22;0.80;;;0.40;;
37891;SDS011;45797;47.466;9.486;2023-11-21T07:04:25;0.52;;;0.32;;
37891;SDS011;45797;47.466;9.486;2023-11-21T07:14:31;0.30;;;0.28;;
37891;SDS011;45797;47.466;9.486;2023-11-21T07:19:32;0.25;;;0.22;;
37891;SDS011;45797;47.466;9.486;2023-11-21T07:24:32;0.28;;;0.28;;
37891;SDS011;45797;47.466;9.486;2023-11-21T07:29:32;0.95;;;0.38;;
37891;SDS011;45797;47.466;9.486;2023-11-21T07:34:33;0.40;;;0.30;;
37891;SDS011;45797;47.466;9.486;2023-11-21T07:39:39;0.43;;;0.40;;
37891;SDS011;45797;47.466;9.486;2023-11-21T07:44:42;0.50;;;0.30;;
37891;SDS011;45797;47.466;9.486;2023-11-21T07:49:49;1.00;;;0.30;;
37891;SDS011;45797;47.466;9.486;2023-11-21T07:54:50;0.20;;;0.20;;
37891;SDS011;45797;47.466;9.486;2023-11-21T08:00:07;0.10;;;0.10;;
37891;SDS011;45797;47.466;9.486;2023-11-21T08:05:12;0.57;;;0.30;;
37891;SDS011;45797;47.466;9.486;2023-11-21T08:10:23;0.55;;;0.30;;
37891;SDS011;45797;47.466;9.486;2023-11-21T08:15:25;2.05;;;0.40;;
37891;SDS011;45797;47.466;9.486;2023-11-21T08:20:26;0.55;;;0.30;;
37891;SDS011;45797;47.466;9.486;2023-11-21T08:30:32;0.32;;;0.30;;
37891;SDS011;45797;47.466;9.486;2023-11-21T08:35:35;0.32;;;0.20;;
37891;SDS011;45797;47.466;9.486;2023-11-21T08:40:37;0.20;;;0.20;;
37891;SDS011;45797;47.466;9.486;2023-11-21T08:45:48;0.40;;;0.25;;
37891;SDS011;45797;47.466;9.486;2023-11-21T08:50:49;0.10;;;0.10;;
37891;SDS011;45797;47.466;9.486;2023-11-21T08:55:51;0.32;;;0.20;;
37891;SDS011;45797;47.466;9.486;2023-11-21T09:00:54;0.20;;;0.20;;
37891;SDS011;45797;47.466;9.486;2023-11-21T09:05:56;1.00;;;0.30;;
37891;SDS011;45797;47.466;9.486;2023-11-21T09:10:59;0.30;;;0.20;;
37891;SDS011;45797;47.466;9.486;2023-11-21T09:21:05;0.25;;;0.20;;
37891;SDS011;45797;47.466;9.486;2023-11-21T09:26:06;0.30;;;0.20;;
37891;SDS011;45797;47.466;9.486;2023-11-21T09:41:50;3.53;;;0.30;;
37891;SDS011;45797;47.466;9.486;2023-11-21T09:47:03;0.40;;;0.30;;
37891;SDS011;45797;47.466;9.486;2023-11-21T09:57:08;0.52;;;0.30;;
37891;SDS011;45797;47.466;9.486;2023-11-21T10:02:10;0.50;;;0.30;;
37891;SDS011;45797;47.466;9.486;2023-11-21T10:07:21;0.20;;;0.20;;
37891;SDS011;45797;47.466;9.486;2023-11-21T10:12:21;0.22;;;0.20;;
37891;SDS011;45797;47.466;9.486;2023-11-21T10:17:23;0.85;;;0.30;;
37891;SDS011;45797;47.466;9.486;2023-11-21T10:22:29;0.40;;;0.30;;
37891;SDS011;45797;47.466;9.486;2023-11-21T10:27:31;0.55;;;0.30;;
37891;SDS011;45797;47.466;9.486;2023-11-21T10:32:31;0.50;;;0.40;;
37891;SDS011;45797;47.466;9.486;2023-11-21T10:37:33;0.35;;;0.30;;
37891;SDS011;45797;47.466;9.486;2023-11-21T10:42:33;0.22;;;0.20;;
37891;SDS011;45797;47.466;9.486;2023-11-21T10:47:36;0.82;;;0.40;;
37891;SDS011;45797;47.466;9.486;2023-11-21T10:52:40;0.45;;;0.30;;
37891;SDS011;45797;47.466;9.486;2023-11-21T10:57:43;0.57;;;0.30;;
37891;SDS011;45797;47.466;9.486;2023-11-21T11:02:55;1.75;;;0.47;;
37891;SDS011;45797;47.466;9.486;2023-11-21T11:08:03;0.25;;;0.20;;
37891;SDS011;45797;47.466;9.486;2023-11-21T11:13:06;0.40;;;0.30;;
37891;SDS011;45797;47.466;9.486;2023-11-21T11:34:08;0.55;;;0.38;;
37891;SDS011;45797;47.466;9.486;2023-11-21T11:39:26;0.80;;;0.40;;
37891;SDS011;45797;47.466;9.486;2023-11-21T12:00:35;2.90;;;0.95;;
37891;SDS011;45797;47.466;9.486;2023-11-21T12:05:58;1.40;;;0.70;;
37891;SDS011;45797;47.466;9.486;2023-11-21T12:11:00;1.67;;;0.60;;
37891;SDS011;45797;47.466;9.486;2023-11-21T12:16:01;1.45;;;0.50;;
37891;SDS011;45797;47.466;9.486;2023-11-21T12:26:10;1.83;;;0.77;;
37891;SDS011;45797;47.466;9.486;2023-11-21T12:31:13;1.10;;;0.55;;
37891;SDS011;45797;47.466;9.486;2023-11-21T12:36:16;2.58;;;0.63;;
37891;SDS011;45797;47.466;9.486;2023-11-21T12:41:17;0.43;;;0.30;;
37891;SDS011;45797;47.466;9.486;2023-11-21T12:46:18;2.00;;;1.02;;
37891;SDS011;45797;47.466;9.486;2023-11-21T12:51:29;1.98;;;0.90;;
37891;SDS011;45797;47.466;9.486;2023-11-21T13:02:01;1.25;;;0.68;;
37891;SDS011;45797;47.466;9.486;2023-11-21T13:07:05;1.90;;;0.63;;
37891;SDS011;45797;47.466;9.486;2023-11-21T13:12:15;0.77;;;0.47;;
37891;SDS011;45797;47.466;9.486;2023-11-21T13:17:19;0.90;;;0.50;;
37891;SDS011;45797;47.466;9.486;2023-11-21T13:22:23;1.00;;;0.50;;
37891;SDS011;45797;47.466;9.486;2023-11-21T13:27:26;1.65;;;0.63;;
37891;SDS011;45797;47.466;9.486;2023-11-21T13:32:27;1.67;;;0.70;;
37891;SDS011;45797;47.466;9.486;2023-11-21T13:37:31;1.23;;;0.60;;
37891;SDS011;45797;47.466;9.486;2023-11-21T13:47:55;1.27;;;0.43;;
37891;SDS011;45797;47.466;9.486;2023-11-21T13:53:06;1.23;;;0.60;;
37891;SDS011;45797;47.466;9.486;2023-11-21T13:58:18;0.90;;;0.50;;
37891;SDS011;45797;47.466;9.486;2023-11-21T14:03:25;3.40;;;0.60;;
37891;SDS011;45797;47.466;9.486;2023-11-21T14:08:46;1.77;;;0.70;;
37891;SDS011;45797;47.466;9.486;2023-11-21T14:13:49;1.08;;;0.50;;
37891;SDS011;45797;47.466;9.486;2023-11-21T14:18:51;1.63;;;0.50;;
37891;SDS011;45797;47.466;9.486;2023-11-21T14:24:06;1.23;;;0.60;;
37891;SDS011;45797;47.466;9.486;2023-11-21T14:29:16;1.00;;;0.50;;
37891;SDS011;45797;47.466;9.486;2023-11-21T14:34:30;1.00;;;0.50;;
37891;SDS011;45797;47.466;9.486;2023-11-21T14:39:38;5.07;;;1.67;;
37891;SDS011;45797;47.466;9.486;2023-11-21T14:44:43;2.83;;;0.63;;
37891;SDS011;45797;47.466;9.486;2023-11-21T15:00:23;0.80;;;0.47;;
37891;SDS011;45797;47.466;9.486;2023-11-21T15:05:35;5.18;;;0.70;;
37891;SDS011;45797;47.466;9.486;2023-11-21T15:10:39;1.20;;;0.50;;
37891;SDS011;45797;47.466;9.486;2023-11-21T15:15:48;1.58;;;0.65;;
37891;SDS011;45797;47.466;9.486;2023-11-21T15:20:50;1.40;;;0.60;;
37891;SDS011;45797;47.466;9.486;2023-11-21T15:25:52;1.35;;;0.55;;
37891;SDS011;45797;47.466;9.486;2023-11-21T15:36:06;1.05;;;0.52;;
37891;SDS011;45797;47.466;9.486;2023-11-21T15:41:11;1.40;;;0.60;;
37891;SDS011;45797;47.466;9.486;2023-11-21T15:46:14;1.38;;;0.70;;
37891;SDS011;45797;47.466;9.486;2023-11-21T15:51:15;3.72;;;1.20;;
37891;SDS011;45797;47.466;9.486;2023-11-21T15:56:18;5.32;;;1.58;;
37891;SDS011;45797;47.466;9.486;2023-11-21T16:01:18;3.92;;;1.10;;
37891;SDS011;45797;47.466;9.486;2023-11-21T16:06:21;1.80;;;0.80;;
37891;SDS011;45797;47.466;9.486;2023-11-21T16:11:22;3.78;;;1.13;;
37891;SDS011;45797;47.466;9.486;2023-11-21T16:16:31;2.03;;;0.85;;
37891;SDS011;45797;47.466;9.486;2023-11-21T16:21:47;2.63;;;1.30;;
37891;SDS011;45797;47.466;9.486;2023-11-21T16:26:49;1.80;;;0.90;;
37891;SDS011;45797;47.466;9.486;2023-11-21T16:31:51;1.70;;;0.80;;
37891;SDS011;45797;47.466;9.486;2023-11-21T16:42:06;1.45;;;0.68;;
37891;SDS011;45797;47.466;9.486;2023-11-21T16:52:14;1.70;;;0.88;;
37891;SDS011;45797;47.466;9.486;2023-11-21T16:57:15;2.20;;;0.70;;
37891;SDS011;45797;47.466;9.486;2023-11-21T17:02:18;1.67;;;0.80;;
37891;SDS011;45797;47.466;9.486;2023-11-21T17:07:18;1.15;;;0.60;;
37891;SDS011;45797;47.466;9.486;2023-11-21T17:12:22;1.48;;;0.68;;
37891;SDS011;45797;47.466;9.486;2023-11-21T17:17:22;2.78;;;0.98;;
37891;SDS011;45797;47.466;9.486;2023-11-21T17:22:24;3.35;;;1.20;;
37891;SDS011;45797;47.466;9.486;2023-11-21T17:27:31;2.15;;;0.93;;
37891;SDS011;45797;47.466;9.486;2023-11-21T17:32:45;2.35;;;0.95;;
37891;SDS011;45797;47.466;9.486;2023-11-21T17:37:46;2.00;;;0.95;;
37891;SDS011;45797;47.466;9.486;2023-11-21T17:42:46;4.85;;;1.70;;
37891;SDS011;45797;47.466;9.486;2023-11-21T17:53:04;3.75;;;1.67;;
37891;SDS011;45797;47.466;9.486;2023-11-21T17:58:04;4.75;;;1.55;;
37891;SDS011;45797;47.466;9.486;2023-11-21T18:03:05;3.10;;;1.40;;
37891;SDS011;45797;47.466;9.486;2023-11-21T18:08:07;7.32;;;2.10;;
37891;SDS011;45797;47.466;9.486;2023-11-21T18:13:16;4.35;;;2.50;;
37891;SDS011;45797;47.466;9.486;2023-11-21T18:18:16;4.45;;;1.67;;
37891;SDS011;45797;47.466;9.486;2023-11-21T18:23:24;7.70;;;2.50;;
37891;SDS011;45797;47.466;9.486;2023-11-21T18:28:30;6.40;;;3.03;;
37891;SDS011;45797;47.466;9.486;2023-11-21T18:33:34;5.25;;;2.38;;
37891;SDS011;45797;47.466;9.486;2023-11-21T18:38:42;3.95;;;1.73;;
37891;SDS011;45797;47.466;9.486;2023-11-21T18:49:01;10.10;;;4.35;;
37891;SDS011;45797;47.466;9.486;2023-11-21T18:54:03;4.28;;;2.20;;
37891;SDS011;45797;47.466;9.486;2023-11-21T18:59:06;6.63;;;2.42;;
37891;SDS011;45797;47.466;9.486;2023-11-21T19:04:09;3.33;;;1.80;;
37891;SDS011;45797;47.466;9.486;2023-11-21T19:19:30;5.93;;;2.25;;
37891;SDS011;45797;47.466;9.486;2023-11-21T19:24:31;5.45;;;2.65;;
37891;SDS011;45797;47.466;9.486;2023-11-21T19:29:32;5.00;;;1.77;;
37891;SDS011;45797;47.466;9.486;2023-11-21T19:34:34;3.03;;;1.63;;
37891;SDS011;45797;47.466;9.486;2023-11-21T19:39:34;3.33;;;1.52;;
37891;SDS011;45797;47.466;9.486;2023-11-21T19:44:35;3.22;;;1.40;;
37891;SDS011;45797;47.466;9.486;2023-11-21T19:49:37;3.78;;;1.70;;
37891;SDS011;45797;47.466;9.486;2023-11-21T19:54:48;2.85;;;1.27;;
37891;SDS011;45797;47.466;9.486;2023-11-21T19:59:50;3.20;;;1.42;;
37891;SDS011;45797;47.466;9.486;2023-11-21T20:05:05;3.08;;;1.42;;
37891;SDS011;45797;47.466;9.486;2023-11-21T20:10:06;4.22;;;1.63;;
37891;SDS011;45797;47.466;9.486;2023-11-21T20:15:08;3.10;;;1.60;;
37891;SDS011;45797;47.466;9.486;2023-11-21T20:20:09;3.10;;;1.38;;
37891;SDS011;45797;47.466;9.486;2023-11-21T20:25:16;3.22;;;1.52;;
37891;SDS011;45797;47.466;9.486;2023-11-21T20:30:19;3.20;;;1.60;;
37891;SDS011;45797;47.466;9.486;2023-11-21T20:35:22;3.83;;;1.73;;
37891;SDS011;45797;47.466;9.486;2023-11-21T20:40:23;3.00;;;1.33;;
37891;SDS011;45797;47.466;9.486;2023-11-21T20:45:33;4.93;;;2.03;;
37891;SDS011;45797;47.466;9.486;2023-11-21T21:01:41;3.00;;;1.50;;
37891;SDS011;45797;47.466;9.486;2023-11-21T21:06:45;3.15;;;1.50;;
37891;SDS011;45797;47.466;9.486;2023-11-21T21:11:47;2.35;;;1.40;;
37891;SDS011;45797;47.466;9.486;2023-11-21T21:16:59;3.65;;;1.48;;
37891;SDS011;45797;47.466;9.486;2023-11-21T21:22:00;2.90;;;1.35;;
37891;SDS011;45797;47.466;9.486;2023-11-21T21:27:02;4.07;;;1.50;;
37891;SDS011;45797;47.466;9.486;2023-11-21T21:32:04;3.03;;;1.40;;
37891;SDS011;45797;47.466;9.486;2023-11-21T21:42:09;2.85;;;1.20;;
37891;SDS011;45797;47.466;9.486;2023-11-21T21:47:09;2.45;;;1.15;;
37891;SDS011;45797;47.466;9.486;2023-11-21T21:52:12;3.03;;;1.33;;
37891;SDS011;45797;47.466;9.486;2023-11-21T21:57:14;3.92;;;1.50;;
37891;SDS011;45797;47.466;9.486;2023-11-21T22:02:16;3.30;;;1.33;;
37891;SDS011;45797;47.466;9.486;2023-11-21T22:07:17;3.42;;;1.48;;
37891;SDS011;45797;47.466;9.486;2023-11-21T22:12:19;2.90;;;1.42;;
37891;SDS011;45797;47.466;9.486;2023-11-21T22:17:20;4.22;;;1.60;;
37891;SDS011;45797;47.466;9.486;2023-11-21T22:22:23;4.00;;;2.00;;
37891;SDS011;45797;47.466;9.486;2023-11-21T22:27:25;4.22;;;2.00;;
37891;SDS011;45797;47.466;9.486;2023-11-21T22:32:26;4.47;;;1.90;;
37891;SDS011;45797;47.466;9.486;2023-11-21T22:37:28;3.90;;;1.80;;
37891;SDS011;45797;47.466;9.486;2023-11-21T22:42:28;3.80;;;1.65;;
37891;SDS011;45797;47.466;9.486;2023-11-21T22:47:29;4.38;;;1.73;;
37891;SDS011;45797;47.466;9.486;2023-11-21T22:52:33;2.85;;;1.40;;
37891;SDS011;45797;47.466;9.486;2023-11-21T22:57:35;2.95;;;1.38;;
37891;SDS011;45797;47.466;9.486;2023-11-21T23:02:40;3.78;;;1.88;;
37891;SDS011;45797;47.466;9.486;2023-11-21T23:07:43;3.75;;;1.90;;
37891;SDS011;45797;47.466;9.486;2023-11-21T23:12:52;3.72;;;1.63;;
37891;SDS011;45797;47.466;9.486;2023-11-21T23:17:52;3.25;;;1.77;;
37891;SDS011;45797;47.466;9.486;2023-11-21T23:22:59;3.55;;;1.80;;
37891;SDS011;45797;47.466;9.486;2023-11-21T23:28:14;4.60;;;2.00;;
37891;SDS011;45797;47.466;9.486;2023-11-21T23:33:26;3.70;;;1.73;;
37891;SDS011;45797;47.466;9.486;2023-11-21T23:38:32;2.92;;;1.58;;
37891;SDS011;45797;47.466;9.486;2023-11-21T23:48:43;3.97;;;1.58;;
37891;SDS011;45797;47.466;9.486;2023-11-21T23:53:53;2.85;;;1.10;;
37891;SDS011;45797;47.466;9.486;2023-11-21T23:58:56;4.45;;;1.60;;
